South Dos Palos, California
Current Conditions -  °F | °C
As of 6:25 AM on Monday 26 Jan 2015 (Local Time) from KMCE Reporting Station
Haze Haze  
Wind Chill: 36°   Ceiling: 500
Heat Index: 36°   Visibility: 1mi
Dew Point: 34°   Wind: 0mph
Humidity: 93%   Direction: NA
Pressure: 30.04"   Gusts: NA
Location:  36.96°N, 120.65°W
Report Text: KMCE 261425Z AUTO 00000KT 1SM BR VV005 02/01 A3004 RMK AO2 T00220011 $
Loading
Personal Weather Stations






























Interactive Weather Map New forecast layout! Learn more

10-Day Weather Forecast

Advertisements
Track Severe Weather on mobile